Time;durP1;ratioP1;P1;durP2;ratioP2;P2;SDS_P1;SDS_P2;PMS_P1;PMS_P2;Temp;Humidity;BMP_temperature;BMP_pressure;BME280_temperature;BME280_humidity;BME280_pressure;Samples;Min_cycle;Max_cycle;Signal;HPM_P1;HPM_P2
2022/08/20 00:09:07;;;;;;;8.8;14.4;;;;;;;21;100;98200;;;;
2022/08/20 00:19:07;;;;;;;8.4;12.6;;;;;;;21;100;98220;;;;
2022/08/20 00:29:07;;;;;;;8.4;12.6;;;;;;;21.1;100;98220;;;;
2022/08/20 00:39:07;;;;;;;8.4;12.6;;;;;;;21.4;100;98220;;;;
2022/08/20 00:49:07;;;;;;;9;15.9;;;;;;;21.5;100;98210;;;;
2022/08/20 00:59:10;;;;;;;9;15.9;;;;;;;21.5;100;98190;;;;
2022/08/20 01:10:07;;;;;;;9;15.9;;;;;;;21.4;100;98210;;;;
2022/08/20 01:20:07;;;;;;;8.7;12.8;;;;;;;21.2;100;98220;;;;
2022/08/20 01:30:07;;;;;;;8.7;12.8;;;;;;;20.9;100;98230;;;;
2022/08/20 01:41:07;;;;;;;8.7;12.8;;;;;;;20.8;100;98230;;;;
2022/08/20 01:52:07;;;;;;;8.9;15.1;;;;;;;20.8;100;98210;;;;
2022/08/20 02:02:07;;;;;;;8.9;15.1;;;;;;;20.6;100;98200;;;;
2022/08/20 02:12:07;;;;;;;8.9;15.1;;;;;;;20.6;100;98200;;;;
2022/08/20 02:23:07;;;;;;;9.4;15.6;;;;;;;20.6;100;98210;;;;
2022/08/20 02:34:08;;;;;;;9.4;15.6;;;;;;;20.5;100;98210;;;;
2022/08/20 02:44:07;;;;;;;9.4;14.7;;;;;;;20.6;100;98200;;;;
2022/08/20 02:55:07;;;;;;;9.4;14.7;;;;;;;20.2;100;98190;;;;
2022/08/20 03:05:07;;;;;;;9.4;14.7;;;;;;;20.3;100;98160;;;;
2022/08/20 03:16:07;;;;;;;9.1;14.9;;;;;;;20.5;100;98150;;;;
2022/08/20 03:26:07;;;;;;;9.1;14.9;;;;;;;20.6;100;98130;;;;
2022/08/20 03:36:07;;;;;;;9.1;14.9;;;;;;;20.5;100;98150;;;;
2022/08/20 03:46:07;;;;;;;9.6;13.1;;;;;;;20.4;100;98140;;;;
2022/08/20 03:57:09;;;;;;;9.6;13.1;;;;;;;20.5;100;98150;;;;
2022/08/20 04:07:07;;;;;;;9.6;13.1;;;;;;;20.6;100;98160;;;;
2022/08/20 04:17:08;;;;;;;9;13.2;;;;;;;20.7;100;98170;;;;
2022/08/20 04:27:07;;;;;;;9;13.2;;;;;;;21;100;98180;;;;
2022/08/20 04:38:07;;;;;;;9;13.2;;;;;;;21;100;98160;;;;
2022/08/20 04:48:07;;;;;;;8.7;13.9;;;;;;;21.1;100;98130;;;;
2022/08/20 04:59:07;;;;;;;8.7;13.9;;;;;;;21;100;98140;;;;
2022/08/20 05:09:07;;;;;;;8.7;13.9;;;;;;;21.3;100;98140;;;;
2022/08/20 05:19:07;;;;;;;9;13.6;;;;;;;22;100;98140;;;;
2022/08/20 05:30:07;;;;;;;9;13.6;;;;;;;22.1;100;98090;;;;
2022/08/20 05:40:08;;;;;;;9;13.6;;;;;;;23;100;98110;;;;
2022/08/20 05:50:07;;;;;;;7.6;10.4;;;;;;;23.6;100;98110;;;;
2022/08/20 06:01:07;;;;;;;7.6;10.4;;;;;;;24.1;100;98120;;;;
2022/08/20 06:11:07;;;;;;;7.6;10.4;;;;;;;24.7;100;98140;;;;
2022/08/20 06:22:07;;;;;;;7.9;13.2;;;;;;;24.9;100;98160;;;;
2022/08/20 06:32:07;;;;;;;7.9;13.2;;;;;;;25.1;100;98180;;;;
2022/08/20 06:42:07;;;;;;;7.9;13.2;;;;;;;25.1;100;98170;;;;
2022/08/20 06:53:07;;;;;;;7.4;10.6;;;;;;;25;100;98170;;;;
2022/08/20 07:04:07;;;;;;;7.4;10.6;;;;;;;25;100;98170;;;;
2022/08/20 07:15:07;;;;;;;7.9;12.7;;;;;;;25.5;100;98190;;;;
2022/08/20 07:26:07;;;;;;;7.9;12.7;;;;;;;25.6;100;98180;;;;
2022/08/20 07:36:07;;;;;;;7.9;12.7;;;;;;;26.3;100;98170;;;;
2022/08/20 07:47:07;;;;;;;7.2;11;;;;;;;26.5;100;98170;;;;
2022/08/20 07:58:07;;;;;;;7.2;11;;;;;;;27.1;100;98150;;;;
2022/08/20 08:08:08;;;;;;;7.2;11;;;;;;;26.9;100;98150;;;;
2022/08/20 08:18:07;;;;;;;8.6;12.4;;;;;;;26.6;100;98150;;;;
2022/08/20 08:29:07;;;;;;;8.6;12.4;;;;;;;26.8;100;98150;;;;
2022/08/20 08:39:07;;;;;;;8.6;12.4;;;;;;;26.5;100;98140;;;;
2022/08/20 08:50:07;;;;;;;7.2;15.4;;;;;;;26.9;100;98130;;;;
2022/08/20 09:01:07;;;;;;;7.2;15.4;;;;;;;27.2;100;98120;;;;
2022/08/20 09:11:08;;;;;;;7.2;15.4;;;;;;;27.6;100;98110;;;;
2022/08/20 09:21:08;;;;;;;6.9;11.1;;;;;;;28.1;100;98120;;;;
2022/08/20 09:31:07;;;;;;;6.9;11.1;;;;;;;28.1;100;98110;;;;
2022/08/20 09:42:07;;;;;;;6.9;11.1;;;;;;;28.2;100;98100;;;;
2022/08/20 09:53:07;;;;;;;6.9;11.9;;;;;;;28.5;100;98100;;;;
2022/08/20 10:03:07;;;;;;;6.9;11.9;;;;;;;28.7;100;98110;;;;
2022/08/20 10:13:07;;;;;;;6.9;11.9;;;;;;;28.9;100;98110;;;;
2022/08/20 10:23:07;;;;;;;6.1;9.1;;;;;;;29.3;100;98090;;;;
2022/08/20 10:33:07;;;;;;;6.1;9.1;;;;;;;29.2;100;98080;;;;
2022/08/20 10:44:07;;;;;;;6.1;11.2;;;;;;;29.5;100;98080;;;;
2022/08/20 10:54:07;;;;;;;6.1;11.2;;;;;;;29.8;100;98070;;;;
2022/08/20 11:05:07;;;;;;;6.1;11.2;;;;;;;30;100;98080;;;;
2022/08/20 11:15:07;;;;;;;6.3;10.3;;;;;;;30.1;100;98060;;;;
2022/08/20 11:25:08;;;;;;;6.3;10.3;;;;;;;30.1;99.5;98050;;;;
2022/08/20 11:36:07;;;;;;;6.3;10.3;;;;;;;30.6;100;98050;;;;
2022/08/20 11:46:07;;;;;;;5.9;9.5;;;;;;;30.7;98;98040;;;;
2022/08/20 11:57:08;;;;;;;5.9;9.5;;;;;;;30.1;100;98020;;;;
2022/08/20 12:07:08;;;;;;;5.9;9.5;;;;;;;29.9;100;98010;;;;
2022/08/20 12:17:08;;;;;;;5;9.2;;;;;;;29.9;100;98020;;;;
2022/08/20 12:28:07;;;;;;;5;9.2;;;;;;;29.5;100;98040;;;;
2022/08/20 12:39:08;;;;;;;5;9.2;;;;;;;29.2;100;98080;;;;
2022/08/20 12:50:07;;;;;;;6.3;11.4;;;;;;;27.3;100;98120;;;;
2022/08/20 13:00:07;;;;;;;6.3;11.4;;;;;;;26.1;100;98150;;;;
2022/08/20 13:11:07;;;;;;;6.3;11.4;;;;;;;25.1;100;98190;;;;
2022/08/20 13:21:07;;;;;;;8.1;16.4;;;;;;;24.3;100;98240;;;;
2022/08/20 13:32:09;;;;;;;8.1;16.4;;;;;;;22.5;100;98280;;;;
2022/08/20 13:42:07;;;;;;;8.1;16.4;;;;;;;21.6;100;98250;;;;
2022/08/20 13:53:07;;;;;;;4.4;15.7;;;;;;;21.6;100;98220;;;;
2022/08/20 14:03:08;;;;;;;4.4;15.7;;;;;;;21.3;100;98160;;;;
2022/08/20 14:14:07;;;;;;;4.4;15.7;;;;;;;21.1;100;98150;;;;
2022/08/20 14:24:08;;;;;;;2.4;7.2;;;;;;;21.3;100;98130;;;;
2022/08/20 14:34:08;;;;;;;2.4;7.2;;;;;;;21;100;98140;;;;
2022/08/20 14:45:08;;;;;;;2.8;8.8;;;;;;;20.5;100;98130;;;;
2022/08/20 14:56:08;;;;;;;2.8;8.8;;;;;;;20.7;100;98130;;;;
2022/08/20 15:06:08;;;;;;;2.8;8.8;;;;;;;21;100;98110;;;;
2022/08/20 15:17:08;;;;;;;4.2;9.9;;;;;;;20.9;100;98130;;;;
2022/08/20 15:28:08;;;;;;;4.2;9.9;;;;;;;20.8;100;98150;;;;
2022/08/20 15:38:08;;;;;;;4.2;9.9;;;;;;;20.5;100;98170;;;;
2022/08/20 15:49:08;;;;;;;3.9;7.9;;;;;;;20.6;100;98160;;;;
2022/08/20 16:00:10;;;;;;;3.9;7.9;;;;;;;21;100;98150;;;;
2022/08/20 16:11:08;;;;;;;3.9;7.9;;;;;;;21.3;100;98150;;;;
2022/08/20 16:22:08;;;;;;;3.8;7;;;;;;;21.2;100;98120;;;;
2022/08/20 16:32:08;;;;;;;3.8;7;;;;;;;21.2;100;98130;;;;
2022/08/20 16:43:08;;;;;;;3.8;7;;;;;;;21.2;100;98130;;;;
2022/08/20 16:53:08;;;;;;;5.1;8.3;;;;;;;20.9;100;98150;;;;
2022/08/20 17:04:08;;;;;;;5.1;8.3;;;;;;;20.8;100;98160;;;;
2022/08/20 17:15:08;;;;;;;4.7;6.7;;;;;;;20.6;100;98170;;;;
2022/08/20 17:25:08;;;;;;;4.7;6.7;;;;;;;20.5;100;98170;;;;
2022/08/20 17:36:08;;;;;;;4.7;6.7;;;;;;;20.6;100;98160;;;;
2022/08/20 17:47:08;;;;;;;5;7.7;;;;;;;20.6;100;98140;;;;
2022/08/20 17:58:08;;;;;;;5;7.7;;;;;;;20.5;100;98120;;;;
2022/08/20 18:09:08;;;;;;;5;7.7;;;;;;;20.3;100;98130;;;;
2022/08/20 18:19:08;;;;;;;18.8;25;;;;;;;19.8;100;98140;;;;
2022/08/20 18:30:08;;;;;;;18.8;25;;;;;;;19.8;100;98150;;;;
2022/08/20 18:41:08;;;;;;;18.8;25;;;;;;;19.8;100;98140;;;;
2022/08/20 18:52:08;;;;;;;8.4;12.2;;;;;;;19.8;100;98140;;;;
2022/08/20 19:03:08;;;;;;;8.4;12.2;;;;;;;19.8;100;98140;;;;
2022/08/20 19:13:08;;;;;;;8.4;12.2;;;;;;;19.7;100;98130;;;;
2022/08/20 19:24:08;;;;;;;9.4;14.8;;;;;;;19.3;100;98120;;;;
2022/08/20 19:34:08;;;;;;;9.4;14.8;;;;;;;19.2;100;98120;;;;
2022/08/20 19:44:08;;;;;;;9.4;14.8;;;;;;;19.2;100;98120;;;;
2022/08/20 19:55:08;;;;;;;9.3;12.9;;;;;;;19.1;100;98110;;;;
2022/08/20 20:06:08;;;;;;;9.3;12.9;;;;;;;19;100;98130;;;;
2022/08/20 20:17:08;;;;;;;10.6;13.9;;;;;;;18.8;100;98130;;;;
2022/08/20 20:28:08;;;;;;;10.6;13.9;;;;;;;18.6;100;98140;;;;
2022/08/20 20:39:08;;;;;;;10.6;13.9;;;;;;;18.7;100;98160;;;;
2022/08/20 20:49:08;;;;;;;11;15.6;;;;;;;18.8;100;98150;;;;
2022/08/20 21:00:10;;;;;;;11;15.6;;;;;;;18.9;100;98150;;;;
2022/08/20 21:11:08;;;;;;;11;15.6;;;;;;;18.8;100;98150;;;;
2022/08/20 21:21:08;;;;;;;7.8;11;;;;;;;18.9;100;98150;;;;
2022/08/20 21:31:08;;;;;;;7.8;11;;;;;;;19.1;100;98130;;;;
2022/08/20 21:42:09;;;;;;;7.8;11;;;;;;;19.2;100;98130;;;;
2022/08/20 21:52:08;;;;;;;6.6;10.9;;;;;;;19.2;100;98130;;;;
2022/08/20 22:03:08;;;;;;;6.6;10.9;;;;;;;19.2;100;98120;;;;
2022/08/20 22:13:08;;;;;;;6.6;10.9;;;;;;;19.2;100;98120;;;;
2022/08/20 22:24:08;;;;;;;9.4;14.6;;;;;;;19.1;100;98110;;;;
2022/08/20 22:35:08;;;;;;;9.4;14.6;;;;;;;19;100;98110;;;;
2022/08/20 22:46:08;;;;;;;9.2;14.1;;;;;;;19.1;100;98110;;;;
2022/08/20 22:56:08;;;;;;;9.2;14.1;;;;;;;18.9;100;98120;;;;
2022/08/20 23:07:08;;;;;;;9.2;14.1;;;;;;;18.8;100;98120;;;;
2022/08/20 23:17:08;;;;;;;10.3;15.4;;;;;;;18.9;100;98100;;;;
2022/08/20 23:28:08;;;;;;;10.3;15.4;;;;;;;19;100;98090;;;;
2022/08/20 23:38:08;;;;;;;10.3;15.4;;;;;;;18.9;100;98080;;;;
2022/08/20 23:48:08;;;;;;;10.6;14.4;;;;;;;19.2;100;98090;;;;
2022/08/20 23:58:08;;;;;;;10.6;14.4;;;;;;;19.3;100;98080;;;;
